DTKA/TBJ METAR and TAF weather

Enter ICAO airport designator
Station Type Date Time Source
DTKA METAR 2019/10/21 23:00 UTC NOAA

DTKA 212300Z 05008KT 8000 SCT020 25/17 Q1016 NOSIG


Station Type Date Time Source
DTKA Decoded METAR 2019/10/21 23:00 UTC NOAA

Tabarka, Tunisia (DTKA) 36-57N 008-45E 21M
Oct 21, 2019 - 07:00 PM EDT / 2019.10.21 2300 UTC
Wind: from the NE (050 degrees) at 9 MPH (8 KT):0
Visibility: 4 mile(s):0
Sky conditions: partly cloudy
Temperature: 77 F (25 C)
Dew Point: 62 F (17 C)
Relative Humidity: 61%
Pressure (altimeter): 30.00 in. Hg (1016 hPa)
ob: DTKA 212300Z 05008KT 8000 SCT020 25/17 Q1016 NOSIG
cycle: 23

Station Type Date Time Source
DTKA TAF 2018/07/22 13:33 UTC NOAA

TAF TAF DTKA 221200Z 2213/2322 23005KT 9999 FEW020 PROB30
TEMPO 2217/2222 4000 -TSRA FEW026CB

Example: see airport list